sensor_id;sensor_type;location;lat;lon;timestamp;P1;durP1;ratioP1;P2;durP2;ratioP2
17570;SDS011;8903;52.220;20.978;2023-02-13T00:01:22;63.37;;;31.00;;
17570;SDS011;8903;52.220;20.978;2023-02-13T00:03:50;65.63;;;29.53;;
17570;SDS011;8903;52.220;20.978;2023-02-13T00:06:17;51.27;;;29.10;;
17570;SDS011;8903;52.220;20.978;2023-02-13T00:08:45;75.43;;;31.03;;
17570;SDS011;8903;52.220;20.978;2023-02-13T00:11:12;64.63;;;31.40;;
17570;SDS011;8903;52.220;20.978;2023-02-13T00:13:39;56.60;;;28.73;;
17570;SDS011;8903;52.220;20.978;2023-02-13T00:16:08;56.37;;;25.57;;
17570;SDS011;8903;52.220;20.978;2023-02-13T00:18:37;59.83;;;27.90;;
17570;SDS011;8903;52.220;20.978;2023-02-13T00:21:05;60.63;;;28.50;;
17570;SDS011;8903;52.220;20.978;2023-02-13T00:23:33;52.97;;;28.33;;
17570;SDS011;8903;52.220;20.978;2023-02-13T00:26:04;57.83;;;29.03;;
17570;SDS011;8903;52.220;20.978;2023-02-13T00:28:32;59.27;;;28.60;;
17570;SDS011;8903;52.220;20.978;2023-02-13T00:31:02;58.23;;;28.63;;
17570;SDS011;8903;52.220;20.978;2023-02-13T00:33:30;61.90;;;29.33;;
17570;SDS011;8903;52.220;20.978;2023-02-13T00:36:02;63.33;;;27.10;;
17570;SDS011;8903;52.220;20.978;2023-02-13T00:38:30;53.70;;;29.10;;
17570;SDS011;8903;52.220;20.978;2023-02-13T00:40:57;50.17;;;27.60;;
17570;SDS011;8903;52.220;20.978;2023-02-13T00:43:24;50.63;;;26.40;;
17570;SDS011;8903;52.220;20.978;2023-02-13T00:45:52;59.53;;;27.67;;
17570;SDS011;8903;52.220;20.978;2023-02-13T00:48:19;59.30;;;28.30;;
17570;SDS011;8903;52.220;20.978;2023-02-13T00:50:46;61.90;;;28.97;;
17570;SDS011;8903;52.220;20.978;2023-02-13T00:53:15;58.17;;;27.50;;
17570;SDS011;8903;52.220;20.978;2023-02-13T00:55:45;46.50;;;28.20;;
17570;SDS011;8903;52.220;20.978;2023-02-13T00:58:12;62.43;;;28.47;;
17570;SDS011;8903;52.220;20.978;2023-02-13T01:00:39;55.73;;;26.37;;
17570;SDS011;8903;52.220;20.978;2023-02-13T01:03:07;58.73;;;26.73;;
17570;SDS011;8903;52.220;20.978;2023-02-13T01:05:34;49.37;;;28.97;;
17570;SDS011;8903;52.220;20.978;2023-02-13T01:08:02;56.70;;;28.37;;
17570;SDS011;8903;52.220;20.978;2023-02-13T01:10:30;58.13;;;26.80;;
17570;SDS011;8903;52.220;20.978;2023-02-13T01:12:58;60.77;;;30.70;;
17570;SDS011;8903;52.220;20.978;2023-02-13T01:15:25;55.90;;;28.60;;
17570;SDS011;8903;52.220;20.978;2023-02-13T01:17:53;52.90;;;25.07;;
17570;SDS011;8903;52.220;20.978;2023-02-13T01:20:24;50.07;;;25.97;;
17570;SDS011;8903;52.220;20.978;2023-02-13T01:22:51;57.97;;;27.90;;
17570;SDS011;8903;52.220;20.978;2023-02-13T01:25:19;58.50;;;29.50;;
17570;SDS011;8903;52.220;20.978;2023-02-13T01:27:47;59.13;;;29.50;;
17570;SDS011;8903;52.220;20.978;2023-02-13T01:30:16;51.77;;;28.67;;
17570;SDS011;8903;52.220;20.978;2023-02-13T01:32:44;48.17;;;26.67;;
17570;SDS011;8903;52.220;20.978;2023-02-13T01:35:12;55.30;;;25.93;;
17570;SDS011;8903;52.220;20.978;2023-02-13T01:37:40;52.83;;;27.77;;
17570;SDS011;8903;52.220;20.978;2023-02-13T01:40:09;55.17;;;28.93;;
17570;SDS011;8903;52.220;20.978;2023-02-13T01:42:37;63.20;;;30.27;;
17570;SDS011;8903;52.220;20.978;2023-02-13T01:45:18;52.43;;;28.80;;
17570;SDS011;8903;52.220;20.978;2023-02-13T01:47:47;62.57;;;26.90;;
17570;SDS011;8903;52.220;20.978;2023-02-13T01:50:17;53.07;;;27.40;;
17570;SDS011;8903;52.220;20.978;2023-02-13T01:52:46;56.00;;;27.97;;
17570;SDS011;8903;52.220;20.978;2023-02-13T01:55:14;48.73;;;24.97;;
17570;SDS011;8903;52.220;20.978;2023-02-13T01:57:43;52.03;;;28.00;;
17570;SDS011;8903;52.220;20.978;2023-02-13T02:00:13;53.47;;;26.97;;
17570;SDS011;8903;52.220;20.978;2023-02-13T02:02:44;46.43;;;25.80;;
17570;SDS011;8903;52.220;20.978;2023-02-13T02:05:17;50.67;;;26.43;;
17570;SDS011;8903;52.220;20.978;2023-02-13T02:07:45;60.57;;;27.87;;
17570;SDS011;8903;52.220;20.978;2023-02-13T02:10:20;48.80;;;25.33;;
17570;SDS011;8903;52.220;20.978;2023-02-13T02:12:48;51.67;;;24.63;;
17570;SDS011;8903;52.220;20.978;2023-02-13T02:15:19;48.00;;;25.20;;
17570;SDS011;8903;52.220;20.978;2023-02-13T02:17:47;55.00;;;25.73;;
17570;SDS011;8903;52.220;20.978;2023-02-13T02:20:19;37.90;;;23.93;;
17570;SDS011;8903;52.220;20.978;2023-02-13T02:25:44;48.87;;;24.97;;
17570;SDS011;8903;52.220;20.978;2023-02-13T02:28:17;43.83;;;23.33;;
17570;SDS011;8903;52.220;20.978;2023-02-13T02:33:40;43.53;;;22.97;;
17570;SDS011;8903;52.220;20.978;2023-02-13T02:36:13;35.03;;;20.27;;
17570;SDS011;8903;52.220;20.978;2023-02-13T02:38:46;39.57;;;21.97;;
17570;SDS011;8903;52.220;20.978;2023-02-13T02:41:18;42.80;;;23.30;;
17570;SDS011;8903;52.220;20.978;2023-02-13T02:44:06;44.03;;;20.20;;
17570;SDS011;8903;52.220;20.978;2023-02-13T02:46:36;42.63;;;23.43;;
17570;SDS011;8903;52.220;20.978;2023-02-13T02:49:28;51.03;;;20.93;;
17570;SDS011;8903;52.220;20.978;2023-02-13T02:52:17;34.20;;;19.60;;
17570;SDS011;8903;52.220;20.978;2023-02-13T02:54:47;41.10;;;21.80;;
17570;SDS011;8903;52.220;20.978;2023-02-13T02:57:35;41.47;;;20.80;;
17570;SDS011;8903;52.220;20.978;2023-02-13T03:00:23;38.90;;;20.87;;
17570;SDS011;8903;52.220;20.978;2023-02-13T03:03:10;35.80;;;20.17;;
17570;SDS011;8903;52.220;20.978;2023-02-13T03:05:58;36.13;;;20.50;;
17570;SDS011;8903;52.220;20.978;2023-02-13T03:08:36;38.23;;;22.30;;
17570;SDS011;8903;52.220;20.978;2023-02-13T03:11:21;30.93;;;19.17;;
17570;SDS011;8903;52.220;20.978;2023-02-13T03:14:06;36.20;;;20.63;;
17570;SDS011;8903;52.220;20.978;2023-02-13T03:16:35;31.80;;;19.23;;
17570;SDS011;8903;52.220;20.978;2023-02-13T03:19:37;34.07;;;20.07;;
17570;SDS011;8903;52.220;20.978;2023-02-13T03:22:30;32.73;;;19.53;;
17570;SDS011;8903;52.220;20.978;2023-02-13T03:25:02;30.73;;;19.30;;
17570;SDS011;8903;52.220;20.978;2023-02-13T03:27:33;33.67;;;19.47;;
17570;SDS011;8903;52.220;20.978;2023-02-13T03:30:22;35.37;;;19.83;;
17570;SDS011;8903;52.220;20.978;2023-02-13T03:32:56;32.40;;;17.87;;
17570;SDS011;8903;52.220;20.978;2023-02-13T03:35:28;32.30;;;19.20;;
17570;SDS011;8903;52.220;20.978;2023-02-13T03:38:22;36.90;;;20.03;;
17570;SDS011;8903;52.220;20.978;2023-02-13T03:40:53;34.03;;;17.63;;
17570;SDS011;8903;52.220;20.978;2023-02-13T03:43:41;39.57;;;20.23;;
17570;SDS011;8903;52.220;20.978;2023-02-13T03:46:11;36.87;;;18.30;;
17570;SDS011;8903;52.220;20.978;2023-02-13T03:48:39;37.27;;;20.50;;
17570;SDS011;8903;52.220;20.978;2023-02-13T03:51:26;35.33;;;20.83;;
17570;SDS011;8903;52.220;20.978;2023-02-13T03:53:57;29.27;;;19.53;;
17570;SDS011;8903;52.220;20.978;2023-02-13T03:56:26;31.13;;;18.90;;
17570;SDS011;8903;52.220;20.978;2023-02-13T03:59:14;30.00;;;19.70;;
17570;SDS011;8903;52.220;20.978;2023-02-13T04:01:45;29.30;;;18.43;;
17570;SDS011;8903;52.220;20.978;2023-02-13T04:04:16;37.33;;;19.00;;
17570;SDS011;8903;52.220;20.978;2023-02-13T04:06:48;26.97;;;16.93;;
17570;SDS011;8903;52.220;20.978;2023-02-13T04:09:18;44.97;;;21.17;;
17570;SDS011;8903;52.220;20.978;2023-02-13T04:11:48;32.70;;;20.07;;
17570;SDS011;8903;52.220;20.978;2023-02-13T04:14:17;46.70;;;19.37;;
17570;SDS011;8903;52.220;20.978;2023-02-13T04:16:45;33.73;;;18.20;;
17570;SDS011;8903;52.220;20.978;2023-02-13T04:19:14;38.90;;;21.03;;
17570;SDS011;8903;52.220;20.978;2023-02-13T04:21:41;34.17;;;20.50;;
17570;SDS011;8903;52.220;20.978;2023-02-13T04:24:08;31.00;;;19.70;;
17570;SDS011;8903;52.220;20.978;2023-02-13T04:26:39;37.20;;;18.53;;
17570;SDS011;8903;52.220;20.978;2023-02-13T04:29:07;38.10;;;18.33;;
17570;SDS011;8903;52.220;20.978;2023-02-13T04:31:34;30.93;;;18.90;;
17570;SDS011;8903;52.220;20.978;2023-02-13T04:34:01;39.77;;;19.87;;
17570;SDS011;8903;52.220;20.978;2023-02-13T04:36:29;43.63;;;21.60;;
17570;SDS011;8903;52.220;20.978;2023-02-13T04:38:56;30.73;;;19.93;;
17570;SDS011;8903;52.220;20.978;2023-02-13T04:41:23;35.20;;;19.30;;
17570;SDS011;8903;52.220;20.978;2023-02-13T04:43:52;39.40;;;20.63;;
17570;SDS011;8903;52.220;20.978;2023-02-13T04:46:19;37.70;;;20.20;;
17570;SDS011;8903;52.220;20.978;2023-02-13T04:48:46;38.13;;;18.97;;
17570;SDS011;8903;52.220;20.978;2023-02-13T04:51:14;41.07;;;19.60;;
17570;SDS011;8903;52.220;20.978;2023-02-13T04:53:41;37.10;;;19.90;;
17570;SDS011;8903;52.220;20.978;2023-02-13T04:56:08;32.80;;;21.77;;
17570;SDS011;8903;52.220;20.978;2023-02-13T04:58:36;41.47;;;21.17;;
17570;SDS011;8903;52.220;20.978;2023-02-13T05:01:11;35.80;;;20.93;;
17570;SDS011;8903;52.220;20.978;2023-02-13T05:03:38;34.20;;;19.60;;
17570;SDS011;8903;52.220;20.978;2023-02-13T05:06:05;34.97;;;22.50;;
17570;SDS011;8903;52.220;20.978;2023-02-13T05:08:33;40.80;;;23.00;;
17570;SDS011;8903;52.220;20.978;2023-02-13T05:11:00;40.47;;;21.60;;
17570;SDS011;8903;52.220;20.978;2023-02-13T05:13:27;31.97;;;19.87;;
17570;SDS011;8903;52.220;20.978;2023-02-13T05:15:55;35.60;;;20.57;;
17570;SDS011;8903;52.220;20.978;2023-02-13T05:18:23;39.43;;;21.07;;
17570;SDS011;8903;52.220;20.978;2023-02-13T05:20:51;38.57;;;20.87;;
17570;SDS011;8903;52.220;20.978;2023-02-13T05:23:32;32.93;;;19.63;;
17570;SDS011;8903;52.220;20.978;2023-02-13T05:25:59;34.77;;;20.73;;
17570;SDS011;8903;52.220;20.978;2023-02-13T05:28:26;31.30;;;19.67;;
17570;SDS011;8903;52.220;20.978;2023-02-13T05:31:11;34.70;;;20.37;;
17570;SDS011;8903;52.220;20.978;2023-02-13T05:33:40;34.73;;;21.47;;
17570;SDS011;8903;52.220;20.978;2023-02-13T05:36:07;33.30;;;19.30;;
17570;SDS011;8903;52.220;20.978;2023-02-13T05:38:35;34.80;;;20.03;;
17570;SDS011;8903;52.220;20.978;2023-02-13T05:41:02;30.73;;;20.10;;
17570;SDS011;8903;52.220;20.978;2023-02-13T05:43:29;31.70;;;19.90;;
17570;SDS011;8903;52.220;20.978;2023-02-13T05:46:00;34.97;;;20.37;;
17570;SDS011;8903;52.220;20.978;2023-02-13T05:48:28;38.23;;;20.30;;
17570;SDS011;8903;52.220;20.978;2023-02-13T05:50:56;34.13;;;19.00;;
17570;SDS011;8903;52.220;20.978;2023-02-13T05:53:24;29.90;;;18.87;;
17570;SDS011;8903;52.220;20.978;2023-02-13T05:55:51;34.83;;;17.50;;
17570;SDS011;8903;52.220;20.978;2023-02-13T05:58:19;39.43;;;21.70;;
17570;SDS011;8903;52.220;20.978;2023-02-13T06:00:46;32.07;;;19.70;;
17570;SDS011;8903;52.220;20.978;2023-02-13T06:03:13;36.53;;;21.07;;
17570;SDS011;8903;52.220;20.978;2023-02-13T06:05:41;31.50;;;18.57;;
17570;SDS011;8903;52.220;20.978;2023-02-13T06:08:09;26.53;;;16.80;;
17570;SDS011;8903;52.220;20.978;2023-02-13T06:10:37;28.10;;;18.77;;
17570;SDS011;8903;52.220;20.978;2023-02-13T06:13:04;31.83;;;17.80;;
17570;SDS011;8903;52.220;20.978;2023-02-13T06:15:31;31.63;;;17.40;;
17570;SDS011;8903;52.220;20.978;2023-02-13T06:17:59;32.13;;;18.90;;
17570;SDS011;8903;52.220;20.978;2023-02-13T06:20:26;34.70;;;18.90;;
17570;SDS011;8903;52.220;20.978;2023-02-13T06:22:53;32.77;;;18.47;;
17570;SDS011;8903;52.220;20.978;2023-02-13T06:25:22;29.80;;;17.90;;
17570;SDS011;8903;52.220;20.978;2023-02-13T06:27:49;37.90;;;18.90;;
17570;SDS011;8903;52.220;20.978;2023-02-13T06:30:17;33.73;;;19.50;;
17570;SDS011;8903;52.220;20.978;2023-02-13T06:32:45;37.10;;;20.20;;
17570;SDS011;8903;52.220;20.978;2023-02-13T06:35:12;32.67;;;18.13;;
17570;SDS011;8903;52.220;20.978;2023-02-13T06:37:40;33.60;;;17.63;;
17570;SDS011;8903;52.220;20.978;2023-02-13T06:40:09;29.07;;;19.57;;
17570;SDS011;8903;52.220;20.978;2023-02-13T06:42:38;32.67;;;18.73;;
17570;SDS011;8903;52.220;20.978;2023-02-13T06:45:05;28.90;;;16.80;;
17570;SDS011;8903;52.220;20.978;2023-02-13T06:47:33;29.87;;;18.17;;
17570;SDS011;8903;52.220;20.978;2023-02-13T06:50:00;39.80;;;20.00;;
17570;SDS011;8903;52.220;20.978;2023-02-13T06:52:27;29.13;;;16.40;;
17570;SDS011;8903;52.220;20.978;2023-02-13T06:54:55;34.80;;;19.53;;
17570;SDS011;8903;52.220;20.978;2023-02-13T06:57:22;25.70;;;17.03;;
17570;SDS011;8903;52.220;20.978;2023-02-13T06:59:52;30.97;;;18.13;;
17570;SDS011;8903;52.220;20.978;2023-02-13T07:02:19;28.40;;;17.07;;
17570;SDS011;8903;52.220;20.978;2023-02-13T07:04:47;29.27;;;16.60;;
17570;SDS011;8903;52.220;20.978;2023-02-13T07:07:14;29.67;;;17.00;;
17570;SDS011;8903;52.220;20.978;2023-02-13T07:09:42;29.10;;;18.43;;
17570;SDS011;8903;52.220;20.978;2023-02-13T07:12:09;32.93;;;17.17;;
17570;SDS011;8903;52.220;20.978;2023-02-13T07:14:36;29.20;;;16.50;;
17570;SDS011;8903;52.220;20.978;2023-02-13T07:17:05;27.57;;;16.50;;
17570;SDS011;8903;52.220;20.978;2023-02-13T07:19:32;25.90;;;14.33;;
17570;SDS011;8903;52.220;20.978;2023-02-13T07:21:59;27.40;;;15.27;;
17570;SDS011;8903;52.220;20.978;2023-02-13T07:24:27;27.70;;;15.00;;
17570;SDS011;8903;52.220;20.978;2023-02-13T07:26:54;22.90;;;15.90;;
17570;SDS011;8903;52.220;20.978;2023-02-13T07:29:21;27.93;;;15.37;;
17570;SDS011;8903;52.220;20.978;2023-02-13T07:31:49;25.20;;;15.53;;
17570;SDS011;8903;52.220;20.978;2023-02-13T07:34:17;24.23;;;15.30;;
17570;SDS011;8903;52.220;20.978;2023-02-13T07:36:45;27.47;;;14.67;;
17570;SDS011;8903;52.220;20.978;2023-02-13T07:39:12;25.10;;;14.47;;
17570;SDS011;8903;52.220;20.978;2023-02-13T07:41:39;27.00;;;14.47;;
17570;SDS011;8903;52.220;20.978;2023-02-13T07:44:07;28.60;;;13.10;;
17570;SDS011;8903;52.220;20.978;2023-02-13T07:46:34;24.93;;;13.80;;
17570;SDS011;8903;52.220;20.978;2023-02-13T07:49:01;19.90;;;14.77;;
17570;SDS011;8903;52.220;20.978;2023-02-13T07:51:30;18.83;;;11.90;;
17570;SDS011;8903;52.220;20.978;2023-02-13T07:53:57;21.43;;;13.23;;
17570;SDS011;8903;52.220;20.978;2023-02-13T07:56:25;27.10;;;13.73;;
17570;SDS011;8903;52.220;20.978;2023-02-13T07:58:52;21.97;;;13.43;;
17570;SDS011;8903;52.220;20.978;2023-02-13T08:01:19;22.47;;;13.60;;
17570;SDS011;8903;52.220;20.978;2023-02-13T08:03:47;26.53;;;13.20;;
17570;SDS011;8903;52.220;20.978;2023-02-13T08:06:16;32.10;;;13.60;;
17570;SDS011;8903;52.220;20.978;2023-02-13T08:08:45;17.70;;;11.97;;
17570;SDS011;8903;52.220;20.978;2023-02-13T08:11:18;26.90;;;14.23;;
17570;SDS011;8903;52.220;20.978;2023-02-13T08:14:05;19.63;;;12.80;;
17570;SDS011;8903;52.220;20.978;2023-02-13T08:16:33;23.37;;;14.23;;
17570;SDS011;8903;52.220;20.978;2023-02-13T08:19:00;25.60;;;16.17;;
17570;SDS011;8903;52.220;20.978;2023-02-13T08:21:27;21.77;;;14.43;;
17570;SDS011;8903;52.220;20.978;2023-02-13T08:23:56;22.93;;;14.77;;
17570;SDS011;8903;52.220;20.978;2023-02-13T08:26:23;42.97;;;15.67;;
17570;SDS011;8903;52.220;20.978;2023-02-13T08:28:51;19.87;;;13.93;;
17570;SDS011;8903;52.220;20.978;2023-02-13T08:31:18;28.70;;;15.23;;
17570;SDS011;8903;52.220;20.978;2023-02-13T08:33:45;25.73;;;13.83;;
17570;SDS011;8903;52.220;20.978;2023-02-13T08:36:12;20.13;;;12.83;;
17570;SDS011;8903;52.220;20.978;2023-02-13T08:38:40;21.17;;;13.70;;
17570;SDS011;8903;52.220;20.978;2023-02-13T08:41:08;19.30;;;12.13;;
17570;SDS011;8903;52.220;20.978;2023-02-13T08:43:35;24.33;;;13.33;;
17570;SDS011;8903;52.220;20.978;2023-02-13T08:46:03;21.60;;;10.20;;
17570;SDS011;8903;52.220;20.978;2023-02-13T08:48:30;17.63;;;9.60;;
17570;SDS011;8903;52.220;20.978;2023-02-13T08:50:57;15.40;;;11.00;;
17570;SDS011;8903;52.220;20.978;2023-02-13T08:53:25;10.20;;;8.07;;
17570;SDS011;8903;52.220;20.978;2023-02-13T08:55:52;15.77;;;8.87;;
17570;SDS011;8903;52.220;20.978;2023-02-13T08:58:21;12.10;;;9.47;;
17570;SDS011;8903;52.220;20.978;2023-02-13T09:00:49;16.73;;;10.37;;
17570;SDS011;8903;52.220;20.978;2023-02-13T09:03:16;15.10;;;10.33;;
17570;SDS011;8903;52.220;20.978;2023-02-13T09:05:43;10.97;;;8.60;;
17570;SDS011;8903;52.220;20.978;2023-02-13T09:08:11;12.80;;;9.47;;
17570;SDS011;8903;52.220;20.978;2023-02-13T09:10:39;18.10;;;9.50;;
17570;SDS011;8903;52.220;20.978;2023-02-13T09:13:07;24.07;;;10.10;;
17570;SDS011;8903;52.220;20.978;2023-02-13T09:15:38;15.00;;;9.70;;
17570;SDS011;8903;52.220;20.978;2023-02-13T09:18:05;11.37;;;9.13;;
17570;SDS011;8903;52.220;20.978;2023-02-13T09:20:32;19.23;;;9.20;;
17570;SDS011;8903;52.220;20.978;2023-02-13T09:23:00;18.17;;;9.07;;
17570;SDS011;8903;52.220;20.978;2023-02-13T09:25:27;16.83;;;8.00;;
17570;SDS011;8903;52.220;20.978;2023-02-13T09:27:54;22.27;;;9.23;;
17570;SDS011;8903;52.220;20.978;2023-02-13T09:30:21;10.80;;;6.53;;
17570;SDS011;8903;52.220;20.978;2023-02-13T09:32:50;16.00;;;8.63;;
17570;SDS011;8903;52.220;20.978;2023-02-13T09:35:18;14.87;;;7.83;;
17570;SDS011;8903;52.220;20.978;2023-02-13T09:37:45;14.50;;;8.57;;
17570;SDS011;8903;52.220;20.978;2023-02-13T09:42:42;13.70;;;8.27;;
17570;SDS011;8903;52.220;20.978;2023-02-13T09:45:10;14.30;;;8.70;;
17570;SDS011;8903;52.220;20.978;2023-02-13T09:47:38;16.27;;;9.77;;
17570;SDS011;8903;52.220;20.978;2023-02-13T09:50:10;16.10;;;8.70;;
17570;SDS011;8903;52.220;20.978;2023-02-13T09:52:42;15.07;;;9.13;;
17570;SDS011;8903;52.220;20.978;2023-02-13T09:55:13;14.47;;;9.30;;
17570;SDS011;8903;52.220;20.978;2023-02-13T09:57:41;15.73;;;9.87;;
17570;SDS011;8903;52.220;20.978;2023-02-13T10:00:11;16.50;;;10.80;;
17570;SDS011;8903;52.220;20.978;2023-02-13T10:02:42;16.50;;;11.20;;
17570;SDS011;8903;52.220;20.978;2023-02-13T10:05:21;19.03;;;11.97;;
17570;SDS011;8903;52.220;20.978;2023-02-13T10:07:52;19.83;;;12.90;;
17570;SDS011;8903;52.220;20.978;2023-02-13T10:10:26;15.80;;;11.63;;
17570;SDS011;8903;52.220;20.978;2023-02-13T10:13:01;20.83;;;12.73;;
17570;SDS011;8903;52.220;20.978;2023-02-13T10:15:32;23.40;;;13.23;;
17570;SDS011;8903;52.220;20.978;2023-02-13T10:18:03;18.27;;;12.90;;
17570;SDS011;8903;52.220;20.978;2023-02-13T10:20:33;19.60;;;13.97;;
17570;SDS011;8903;52.220;20.978;2023-02-13T10:23:07;26.30;;;12.97;;
17570;SDS011;8903;52.220;20.978;2023-02-13T10:25:41;23.60;;;15.10;;
17570;SDS011;8903;52.220;20.978;2023-02-13T10:28:10;31.00;;;13.93;;
17570;SDS011;8903;52.220;20.978;2023-02-13T10:30:39;21.70;;;14.63;;
17570;SDS011;8903;52.220;20.978;2023-02-13T10:33:12;13.93;;;10.77;;
17570;SDS011;8903;52.220;20.978;2023-02-13T10:35:46;19.80;;;13.30;;
17570;SDS011;8903;52.220;20.978;2023-02-13T10:38:15;21.00;;;13.77;;
17570;SDS011;8903;52.220;20.978;2023-02-13T10:40:47;20.70;;;13.40;;
17570;SDS011;8903;52.220;20.978;2023-02-13T10:43:16;20.13;;;13.50;;
17570;SDS011;8903;52.220;20.978;2023-02-13T10:45:51;23.07;;;15.03;;
17570;SDS011;8903;52.220;20.978;2023-02-13T10:48:28;26.60;;;15.43;;
17570;SDS011;8903;52.220;20.978;2023-02-13T10:51:03;23.93;;;15.20;;
17570;SDS011;8903;52.220;20.978;2023-02-13T10:53:37;26.20;;;16.40;;
17570;SDS011;8903;52.220;20.978;2023-02-13T10:56:10;30.90;;;17.63;;
17570;SDS011;8903;52.220;20.978;2023-02-13T10:58:50;35.00;;;20.57;;
17570;SDS011;8903;52.220;20.978;2023-02-13T11:01:21;34.83;;;18.43;;
17570;SDS011;8903;52.220;20.978;2023-02-13T11:04:02;30.97;;;19.50;;
17570;SDS011;8903;52.220;20.978;2023-02-13T11:06:31;28.67;;;17.90;;
17570;SDS011;8903;52.220;20.978;2023-02-13T11:08:59;31.63;;;18.10;;
17570;SDS011;8903;52.220;20.978;2023-02-13T11:11:27;34.53;;;18.93;;
17570;SDS011;8903;52.220;20.978;2023-02-13T11:14:06;27.40;;;19.40;;
17570;SDS011;8903;52.220;20.978;2023-02-13T11:16:37;27.00;;;19.03;;
17570;SDS011;8903;52.220;20.978;2023-02-13T11:19:04;24.53;;;15.97;;
17570;SDS011;8903;52.220;20.978;2023-02-13T11:21:33;32.77;;;18.90;;
17570;SDS011;8903;52.220;20.978;2023-02-13T11:24:03;30.50;;;18.40;;
17570;SDS011;8903;52.220;20.978;2023-02-13T11:26:31;22.83;;;16.63;;
17570;SDS011;8903;52.220;20.978;2023-02-13T11:28:59;29.00;;;17.90;;
17570;SDS011;8903;52.220;20.978;2023-02-13T11:31:27;29.63;;;18.20;;
17570;SDS011;8903;52.220;20.978;2023-02-13T11:33:55;34.30;;;18.10;;
17570;SDS011;8903;52.220;20.978;2023-02-13T11:36:24;27.37;;;17.20;;
17570;SDS011;8903;52.220;20.978;2023-02-13T11:39:00;34.00;;;17.70;;
17570;SDS011;8903;52.220;20.978;2023-02-13T11:41:30;31.50;;;17.60;;
17570;SDS011;8903;52.220;20.978;2023-02-13T11:43:58;28.30;;;17.80;;
17570;SDS011;8903;52.220;20.978;2023-02-13T11:46:26;28.07;;;17.43;;
17570;SDS011;8903;52.220;20.978;2023-02-13T11:48:55;26.43;;;17.57;;
17570;SDS011;8903;52.220;20.978;2023-02-13T11:51:33;31.67;;;17.57;;
17570;SDS011;8903;52.220;20.978;2023-02-13T11:54:02;29.53;;;17.20;;
17570;SDS011;8903;52.220;20.978;2023-02-13T11:56:36;33.03;;;17.67;;
17570;SDS011;8903;52.220;20.978;2023-02-13T11:59:13;32.00;;;17.37;;
17570;SDS011;8903;52.220;20.978;2023-02-13T12:01:40;29.87;;;19.63;;
17570;SDS011;8903;52.220;20.978;2023-02-13T12:04:12;28.63;;;16.67;;
17570;SDS011;8903;52.220;20.978;2023-02-13T12:06:56;25.93;;;17.33;;
17570;SDS011;8903;52.220;20.978;2023-02-13T12:09:25;25.50;;;16.57;;
17570;SDS011;8903;52.220;20.978;2023-02-13T12:11:54;31.10;;;19.87;;
17570;SDS011;8903;52.220;20.978;2023-02-13T12:14:26;28.10;;;17.40;;
17570;SDS011;8903;52.220;20.978;2023-02-13T12:16:56;26.10;;;17.27;;
17570;SDS011;8903;52.220;20.978;2023-02-13T12:19:27;44.50;;;19.40;;
17570;SDS011;8903;52.220;20.978;2023-02-13T12:22:14;28.23;;;18.23;;
17570;SDS011;8903;52.220;20.978;2023-02-13T12:24:53;31.73;;;18.27;;
17570;SDS011;8903;52.220;20.978;2023-02-13T12:27:27;32.20;;;17.70;;
17570;SDS011;8903;52.220;20.978;2023-02-13T12:29:59;23.80;;;16.10;;
17570;SDS011;8903;52.220;20.978;2023-02-13T12:32:31;27.40;;;17.70;;
17570;SDS011;8903;52.220;20.978;2023-02-13T12:37:53;28.37;;;17.60;;
17570;SDS011;8903;52.220;20.978;2023-02-13T12:40:29;23.90;;;16.00;;
17570;SDS011;8903;52.220;20.978;2023-02-13T12:43:03;23.07;;;16.73;;
17570;SDS011;8903;52.220;20.978;2023-02-13T12:45:35;31.03;;;18.10;;
17570;SDS011;8903;52.220;20.978;2023-02-13T12:48:09;28.80;;;17.10;;
17570;SDS011;8903;52.220;20.978;2023-02-13T12:50:46;28.03;;;15.93;;
17570;SDS011;8903;52.220;20.978;2023-02-13T12:53:24;20.67;;;15.73;;
17570;SDS011;8903;52.220;20.978;2023-02-13T12:56:02;26.00;;;15.67;;
17570;SDS011;8903;52.220;20.978;2023-02-13T12:58:39;30.73;;;15.47;;
17570;SDS011;8903;52.220;20.978;2023-02-13T13:01:10;25.10;;;16.23;;
17570;SDS011;8903;52.220;20.978;2023-02-13T13:03:44;27.63;;;17.00;;
17570;SDS011;8903;52.220;20.978;2023-02-13T13:06:21;27.47;;;16.20;;
17570;SDS011;8903;52.220;20.978;2023-02-13T13:09:07;19.63;;;15.17;;
17570;SDS011;8903;52.220;20.978;2023-02-13T13:11:44;30.20;;;18.97;;
17570;SDS011;8903;52.220;20.978;2023-02-13T13:14:18;23.17;;;16.70;;
17570;SDS011;8903;52.220;20.978;2023-02-13T13:16:52;25.77;;;17.47;;
17570;SDS011;8903;52.220;20.978;2023-02-13T13:19:24;25.97;;;15.50;;
17570;SDS011;8903;52.220;20.978;2023-02-13T13:21:54;31.00;;;16.70;;
17570;SDS011;8903;52.220;20.978;2023-02-13T13:24:27;25.43;;;15.93;;
17570;SDS011;8903;52.220;20.978;2023-02-13T13:26:57;28.60;;;15.63;;
17570;SDS011;8903;52.220;20.978;2023-02-13T13:29:26;24.40;;;15.27;;
17570;SDS011;8903;52.220;20.978;2023-02-13T13:31:56;22.20;;;15.40;;
17570;SDS011;8903;52.220;20.978;2023-02-13T13:34:26;25.50;;;17.13;;
17570;SDS011;8903;52.220;20.978;2023-02-13T13:36:55;25.87;;;15.07;;
17570;SDS011;8903;52.220;20.978;2023-02-13T13:39:28;22.87;;;14.87;;
17570;SDS011;8903;52.220;20.978;2023-02-13T13:42:01;23.37;;;15.97;;
17570;SDS011;8903;52.220;20.978;2023-02-13T13:44:39;34.30;;;16.73;;
17570;SDS011;8903;52.220;20.978;2023-02-13T13:47:14;21.67;;;15.73;;
17570;SDS011;8903;52.220;20.978;2023-02-13T13:49:43;25.83;;;15.67;;
17570;SDS011;8903;52.220;20.978;2023-02-13T13:52:19;27.50;;;15.70;;
17570;SDS011;8903;52.220;20.978;2023-02-13T13:54:47;21.93;;;13.80;;
17570;SDS011;8903;52.220;20.978;2023-02-13T13:57:17;24.97;;;15.60;;
17570;SDS011;8903;52.220;20.978;2023-02-13T13:59:59;24.43;;;15.90;;
17570;SDS011;8903;52.220;20.978;2023-02-13T14:02:34;23.17;;;14.23;;
17570;SDS011;8903;52.220;20.978;2023-02-13T14:05:09;28.77;;;15.77;;
17570;SDS011;8903;52.220;20.978;2023-02-13T14:07:43;26.70;;;14.87;;
17570;SDS011;8903;52.220;20.978;2023-02-13T14:10:19;22.27;;;14.53;;
17570;SDS011;8903;52.220;20.978;2023-02-13T14:13:07;21.30;;;13.57;;
17570;SDS011;8903;52.220;20.978;2023-02-13T14:15:48;23.47;;;14.77;;
17570;SDS011;8903;52.220;20.978;2023-02-13T14:18:18;27.30;;;15.13;;
17570;SDS011;8903;52.220;20.978;2023-02-13T14:20:50;22.37;;;14.03;;
17570;SDS011;8903;52.220;20.978;2023-02-13T14:23:25;22.53;;;13.83;;
17570;SDS011;8903;52.220;20.978;2023-02-13T14:26:10;20.67;;;14.83;;
17570;SDS011;8903;52.220;20.978;2023-02-13T14:28:39;20.23;;;12.97;;
17570;SDS011;8903;52.220;20.978;2023-02-13T14:31:08;26.10;;;13.27;;
17570;SDS011;8903;52.220;20.978;2023-02-13T14:33:41;25.80;;;14.90;;
17570;SDS011;8903;52.220;20.978;2023-02-13T14:36:16;28.87;;;14.60;;
17570;SDS011;8903;52.220;20.978;2023-02-13T14:38:53;19.23;;;13.60;;
17570;SDS011;8903;52.220;20.978;2023-02-13T14:41:40;19.13;;;13.23;;
17570;SDS011;8903;52.220;20.978;2023-02-13T14:44:10;24.87;;;13.50;;
17570;SDS011;8903;52.220;20.978;2023-02-13T14:46:42;21.23;;;12.93;;
17570;SDS011;8903;52.220;20.978;2023-02-13T14:49:11;18.37;;;11.73;;
17570;SDS011;8903;52.220;20.978;2023-02-13T14:51:39;20.70;;;12.77;;
17570;SDS011;8903;52.220;20.978;2023-02-13T14:54:14;18.27;;;12.93;;
17570;SDS011;8903;52.220;20.978;2023-02-13T14:56:45;16.50;;;12.30;;